Buoy 32622

sailwx.info

Track history (hours):
 
Tides and Currents Weather Stations Pressure Air Temp Water Temp Dewpoint Dewpoint Depression Visibility Wind Speed Wind Dir Waves Ship Positions

Aadnyj

Last reported at 2015-Mar-05 21:46 UTC. Time now 2015-Mar-06 00:06 UTC.
Position S 20°56' W 165°45'.

Length 56 m.

Type: Towing. MMSI: 413600286.

Date/timePositionNaut miles runAvg speedWind from/ knotsBaromVisibWave heightAir tempDewpointWater temp
2015-Mar-05 21:46S 20°56' W 165°45'1 8.9
2015-Mar-05 21:41S 20°56' W 165°45'0 0.2 28.1
2015-Mar-05 20:56S 20°56' W 165°45'0 1.8 28.1
2015-Mar-05 20:50S 20°56' W 165°45'0 0.4 28.1
2015-Mar-05 20:10S 20°56' W 165°45'0 0.7 28.1
2015-Mar-05 20:05S 20°56' W 165°45'1 0.7 28.1
2015-Mar-05 19:11S 20°57' W 165°45'0 0.5 28.2
2015-Mar-05 18:26S 20°57' W 165°44'0 0.2 28.2
2015-Mar-05 16:47S 20°57' W 165°45'1 1.9 28.2
2015-Mar-05 16:08S 20°58' W 165°44'1 5.1 28.2
2015-Mar-05 15:56S 20°57' W 165°44'1 3.9 28.2
2015-Mar-05 15:43S 20°58' W 165°44'0 0.2 28.2
2015-Mar-05 14:30S 20°58' W 165°44'0 0.0 28.2
2015-Mar-05 14:12S 20°58' W 165°44'1 0.5 28.2
2015-Mar-05 12:51S 20°59' W 165°44'0 0.0 28.2
2015-Mar-05 12:47S 20°59' W 165°44'1 0.6 28.2
2015-Mar-05 11:06S 20°59' W 165°44'0 0.3 28.2
2015-Mar-05 09:41S 20°59' W 165°44'0 0.5 28.2
2015-Mar-05 08:57S 20°59' W 165°43'0 0.0 28.2
2015-Mar-05 08:54S 20°59' W 165°43'1 0.8 28.2
2015-Mar-05 08:04S 20°59' W 165°44'1 0.3 28.2
2015-Mar-05 06:04S 20°59' W 165°43'1 0.4 28.2
2015-Mar-05 04:34S 20°60' W 165°43'0 0.0 28.2
2015-Mar-05 04:23S 20°60' W 165°43'1 1.5 28.2
2015-Mar-05 03:24S 20°58' W 165°43'1 3.5 28.2
2015-Mar-05 03:11S 20°59' W 165°43'313.5 28.2
2015-Mar-05 02:58S 20°59' W 165°40'0 0.0 28.2
2015-Mar-05 01:29S 20°59' W 165°40'0 0.0 28.2
2015-Mar-04 23:52S 20°59' W 165°40'1 0.3 28.2
2015-Mar-04 20:30S 20°60' W 165°39'0 0.0 28.1
2015-Mar-04 20:21S 20°60' W 165°39'0 0.0 28.1
2015-Mar-04 19:30S 20°60' W 165°39'1 1.6 28.1
2015-Mar-04 18:55S 21°00' W 165°39'1 0.3 28.1
2015-Mar-04 17:16S 21°00' W 165°38'1 0.6 28.2
2015-Mar-04 16:07S 21°01' W 165°38'0 0.0 28.2
2015-Mar-04 16:00S 21°01' W 165°38'1 1.5 28.2
2015-Mar-04 15:36S 21°01' W 165°38'0 0.2 28.2
2015-Mar-04 14:57S 21°01' W 165°38'0 0.0 28.2
2015-Mar-04 14:26S 21°01' W 165°38'0 0.0 28.2
2015-Mar-04 14:23S 21°01' W 165°38'3 2.2 28.2
2015-Mar-04 13:02S 21°03' W 165°35'0 0.0 28.2
2015-Mar-04 12:57S 21°03' W 165°35'0 0.0 28.2
2015-Mar-04 12:50S 21°03' W 165°35'0 0.0 28.2
2015-Mar-04 11:15S 21°03' W 165°35'0 0.2 28.3
2015-Mar-04 09:16S 21°03' W 165°35'0 0.0 28.3
2015-Mar-04 09:14S 21°03' W 165°35'111.5 28.3
2015-Mar-04 09:10S 21°03' W 165°36'0 0.0
2015-Mar-04 08:25S 21°03' W 165°36'1 0.3 28.3
2015-Mar-04 04:57S 21°04' W 165°36'0 3.7 28.4
2015-Mar-04 04:52S 21°04' W 165°36'0 0.0 28.4
2015-Mar-04 04:46S 21°04' W 165°36'0 0.3 28.4
2015-Mar-04 03:50S 21°04' W 165°36'0 0.3 28.4
2015-Mar-04 03:21S 21°04' W 165°36'1 4.0 28.4
2015-Mar-04 03:13S 21°04' W 165°35'110.8 28.4
2015-Mar-04 03:10S 21°04' W 165°36'1 0.4 28.4
2015-Mar-04 01:46S 21°04' W 165°35'0 1.2 28.5
2015-Mar-04 01:42S 21°04' W 165°35'1 0.3 28.5
2015-Mar-04 00:04S 21°04' W 165°35'2 0.6 28.5
2015-Mar-03 20:46S 21°05' W 165°34'0 3.4 28.3
2015-Mar-03 20:44S 21°05' W 165°34'0 0.1 28.3
2015-Mar-03 19:58S 21°05' W 165°34'0 0.7 28.3
2015-Mar-03 19:53S 21°05' W 165°34'0 0.4 28.3
2015-Mar-03 19:08S 21°05' W 165°34'1 0.8 28.2
2015-Mar-03 17:50S 21°06' W 165°33'0 1.1 28.2
2015-Mar-03 17:44S 21°06' W 165°33'0 0.2 28.2
2015-Mar-03 17:01S 21°06' W 165°33'0 0.4 28.3
2015-Mar-03 16:16S 21°06' W 165°33'0 1.3 28.3
2015-Mar-03 16:10S 21°06' W 165°33'0 0.6 28.3
2015-Mar-03 15:22S 21°06' W 165°32'1 1.3 28.3
2015-Mar-03 14:49S 21°07' W 165°33'1 4.0 28.3
2015-Mar-03 14:30S 21°06' W 165°32'0 0.0 28.3
2015-Mar-03 13:13S 21°06' W 165°32'1 4.2 28.3
2015-Mar-03 13:05S 21°06' W 165°32'224.6 28.3
2015-Mar-03 13:01S 21°08' W 165°31'0 0.1 28.3
2015-Mar-03 11:29S 21°07' W 165°31'1 0.6 28.3
2015-Mar-03 09:38S 21°08' W 165°30'1 4.6 28.3
2015-Mar-03 09:30S 21°08' W 165°30'0 0.0 28.3
2015-Mar-03 08:46S 21°08' W 165°30'0 1.2 28.3
2015-Mar-03 08:43S 21°08' W 165°30'1 0.8 28.3
2015-Mar-03 07:58S 21°08' W 165°30'2 1.7 28.4
2015-Mar-03 07:03S 21°08' W 165°28'1 0.5 28.4
2015-Mar-03 05:22S 21°09' W 165°28'1 2.5 28.4
2015-Mar-03 04:59S 21°09' W 165°27'1 1.3 28.5
2015-Mar-03 04:14S 21°09' W 165°28'0 0.8 28.5
2015-Mar-03 03:46S 21°09' W 165°28'0 1.0 28.5
2015-Mar-03 03:16S 21°09' W 165°28'2 1.4 28.6
2015-Mar-03 01:53S 21°11' W 165°26'1 0.3 28.7
2015-Mar-03 00:15S 21°10' W 165°27'2 0.7 28.7
2015-Mar-02 21:10S 21°13' W 165°26'0 0.4 28.3
2015-Mar-02 20:13S 21°13' W 165°26'1 0.8 28.3
2015-Mar-02 19:28S 21°13' W 165°26'1 0.4 28.3
2015-Mar-02 16:41S 21°14' W 165°25'0 0.0 28.3
2015-Mar-02 16:30S 21°14' W 165°25'0 0.6 28.3
2015-Mar-02 15:45S 21°15' W 165°25'0 0.1 28.3
2015-Mar-02 14:49S 21°15' W 165°25'0 0.0 28.3
2015-Mar-02 14:46S 21°15' W 165°25'0 0.1 28.3
2015-Mar-02 13:16S 21°15' W 165°25'1 6.5 28.4
2015-Mar-02 13:11S 21°16' W 165°25'0 0.0 28.4
2015-Mar-02 11:43S 21°16' W 165°25'0 1.2 28.4
2015-Mar-02 11:40S 21°16' W 165°25'0 0.0 28.4
2015-Mar-02 10:41S 21°16' W 165°25'1 1.1 28.4
2015-Mar-02 09:52S 21°16' W 165°24'0 0.0 28.4
2015-Mar-02 09:07S 21°16' W 165°24'0 1.8 28.5
2015-Mar-02 09:03S 21°16' W 165°24'0 0.4 28.5
2015-Mar-02 08:15S 21°16' W 165°25'1 0.8 28.5
2015-Mar-02 07:24S 21°16' W 165°24'1 0.5 28.6
2015-Mar-02 05:09S 21°16' W 165°23'0 0.2 28.7
2015-Mar-02 04:15S 21°15' W 165°23'1 0.8 28.9
2015-Mar-02 03:30S 21°16' W 165°22'1 2.6 28.9
2015-Mar-02 02:56S 21°16' W 165°21'0 0.0 28.8
2015-Mar-02 02:08S 21°16' W 165°21'1 0.3 28.8
2015-Mar-02 00:27S 21°17' W 165°21'3 0.7 28.9
2015-Mar-01 20:30S 21°19' W 165°19'0 0.5 28.3
2015-Mar-01 19:51S 21°19' W 165°19'0 0.0 28.2
2015-Mar-01 19:48S 21°19' W 165°19'1 0.7 28.2
2015-Mar-01 18:54S 21°20' W 165°18'2 0.9 28.2
2015-Mar-01 17:12S 21°21' W 165°18'0 0.9 28.2
2015-Mar-01 16:41S 21°22' W 165°18'1 1.8 28.2
2015-Mar-01 16:14S 21°22' W 165°17'1 1.0 28.2
2015-Mar-01 15:29S 21°23' W 165°18'0 0.0 28.2
2015-Mar-01 14:58S 21°23' W 165°18'1 1.1 28.2
2015-Mar-01 14:29S 21°23' W 165°18'1 0.6 28.2
2015-Mar-01 13:36S 21°23' W 165°18'0 4.2 28.2
2015-Mar-01 13:29S 21°24' W 165°19'0 0.1 28.2
2015-Mar-01 09:27S 21°24' W 165°18'0 0.4 28.3
2015-Mar-01 08:39S 21°24' W 165°19'0 0.5 28.3
2015-Mar-01 07:46S 21°23' W 165°18'1 0.7 28.4
2015-Mar-01 06:27S 21°24' W 165°18'0 0.0 28.4
2015-Mar-01 05:22S 21°24' W 165°18'0 0.6 28.5
2015-Mar-01 04:46S 21°24' W 165°18'0 0.2 28.6
2015-Mar-01 03:44S 21°24' W 165°18'0 1.3 28.7
2015-Mar-01 03:23S 21°24' W 165°18'0 4.0
2015-Mar-01 03:21S 21°24' W 165°18'1 4.1 28.7
2015-Mar-01 03:07S 21°24' W 165°17'0 0.0 28.7
2015-Mar-01 02:16S 21°24' W 165°17'0 0.1 28.7
2015-Mar-01 00:38S 21°24' W 165°17'1 0.4 28.5
2015-Feb-28 21:51S 21°25' W 165°16'1 8.0 28.4
2015-Feb-28 21:45S 21°24' W 165°16'0 0.2 28.4
2015-Feb-28 21:00S 21°24' W 165°16'0 1.0 28.3
2015-Feb-28 20:52S 21°24' W 165°16'0 0.0 28.3
2015-Feb-28 20:13S 21°24' W 165°16'0 0.0 28.2
2015-Feb-28 20:07S 21°24' W 165°16'1 1.0 28.2
2015-Feb-28 19:14S 21°24' W 165°15'1 0.3 28.2
2015-Feb-28 17:40S 21°25' W 165°14'0 0.4 28.2
2015-Feb-28 16:52S 21°25' W 165°14'0 0.1 28.2
2015-Feb-28 16:01S 21°25' W 165°14'0 0.2 28.3
2015-Feb-28 15:12S 21°25' W 165°14'0 0.0 28.3
2015-Feb-28 15:09S 21°25' W 165°14'0 1.8 28.3
2015-Feb-28 15:00S 21°25' W 165°14'0 0.0 28.3
2015-Feb-28 14:55S 21°25' W 165°14'0 0.4 28.3
2015-Feb-28 13:47S 21°25' W 165°14'1 0.4 28.3
2015-Feb-28 12:06S 21°25' W 165°13'0 0.0 28.4
2015-Feb-28 12:03S 21°25' W 165°13'1 0.2 28.4
2015-Feb-28 08:59S 21°26' W 165°13'0 0.0 28.4
2015-Feb-28 08:57S 21°26' W 165°13'0 0.0 28.4
2015-Feb-28 08:08S 21°26' W 165°13'0 0.8 28.4
2015-Feb-28 08:02S 21°26' W 165°13'1 0.9 28.5
2015-Feb-28 07:15S 21°26' W 165°12'0 0.2 28.5
2015-Feb-28 05:30S 21°26' W 165°11'0 2.1 28.5
2015-Feb-28 05:16S 21°26' W 165°12'0 0.1 28.5
2015-Feb-28 02:11S 21°26' W 165°12'0 0.0 28.6
2015-Feb-28 00:51S 21°26' W 165°12'1 0.1 28.6
2015-Feb-27 20:26S 21°26' W 165°12'1 0.4 28.3
2015-Feb-27 18:45S 21°25' W 165°11'0 0.5 28.2
2015-Feb-27 18:15S 21°26' W 165°11'0 0.3 28.3
2015-Feb-27 16:36S 21°25' W 165°11'1 0.7 28.3
2015-Feb-27 15:23S 21°25' W 165°10'0 0.7 28.3
2015-Feb-27 15:16S 21°25' W 165°10'111.6 28.3
2015-Feb-27 15:11S 21°25' W 165°09'1 0.7 28.3
2015-Feb-27 13:57S 21°25' W 165°10'1 3.0 28.3
2015-Feb-27 13:40S 21°25' W 165°09'1 0.4 28.3
2015-Feb-27 12:16S 21°25' W 165°10'0 4.0 28.3
2015-Feb-27 12:14S 21°25' W 165°10'1 0.5 28.3
2015-Feb-27 09:14S 21°24' W 165°08'0 0.0 28.5
2015-Feb-27 08:28S 21°24' W 165°08'1 0.7 28.5
2015-Feb-27 07:40S 21°24' W 165°08'1 0.6 28.5
2015-Feb-27 05:53S 21°25' W 165°07'0 1.9 28.8
2015-Feb-27 05:45S 21°25' W 165°07'1 0.5 28.8
2015-Feb-27 04:14S 21°25' W 165°06'0 7.9 29.1
2015-Feb-27 04:11S 21°25' W 165°07'0 0.0 29.1
2015-Feb-27 04:00S 21°25' W 165°07'1 0.7 29.1
2015-Feb-27 02:38S 21°25' W 165°06'0 0.1 29.3
2015-Feb-27 01:00S 21°25' W 165°06'2 0.4 29.1
2015-Feb-26 20:54S 21°26' W 165°04'0 0.4 28.2
2015-Feb-26 19:55S 21°26' W 165°05'1 1.2 28.1
2015-Feb-26 19:10S 21°27' W 165°04'0 0.8 28.0
2015-Feb-26 18:45S 21°27' W 165°04'0 0.1 28.0
2015-Feb-26 15:44S 21°27' W 165°04'0 0.0 28.1
2015-Feb-26 15:36S 21°27' W 165°04'0 0.2 28.1
2015-Feb-26 14:09S 21°27' W 165°04'0 1.0 28.1
2015-Feb-26 13:50S 21°27' W 165°03'0 0.1 28.1
2015-Feb-26 12:25S 21°27' W 165°04'0 0.1 28.1
2015-Feb-26 09:39S 21°27' W 165°03'1 0.6 28.1
2015-Feb-26 08:47S 21°27' W 165°03'0 0.0 28.2
2015-Feb-26 08:02S 21°27' W 165°03'0 0.2 28.2
2015-Feb-26 07:04S 21°27' W 165°03'0 0.0 28.2
2015-Feb-26 05:56S 21°27' W 165°03'0 0.4 28.3
2015-Feb-26 04:45S 21°26' W 165°03'0 1.2 28.4
2015-Feb-26 04:42S 21°26' W 165°03'0 0.0 28.4
2015-Feb-26 04:40S 21°26' W 165°03'1 2.4 28.4
2015-Feb-26 04:15S 21°26' W 165°02'1 1.1 28.4
2015-Feb-26 03:03S 21°25' W 165°02'1 5.1 28.4
2015-Feb-26 02:52S 21°26' W 165°02'0 0.0 28.4
2015-Feb-26 02:45S 21°26' W 165°02'1 6.3 28.4
2015-Feb-26 02:36S 21°25' W 165°02'1 0.4 28.4
2015-Feb-26 01:11S 21°25' W 165°02'1 0.6 28.2
2015-Feb-25 23:27S 21°24' W 165°01'0 0.0 28.3
2015-Feb-25 21:59S 21°24' W 165°01'1 0.8 28.2
2015-Feb-25 21:14S 21°25' W 165°00'1 0.8 28.2
2015-Feb-25 20:16S 21°25' W 164°60'0 0.2 28.1
2015-Feb-25 19:27S 21°25' W 164°60'0 0.0 28.0
2015-Feb-25 19:13S 21°25' W 164°60'0 0.6 28.0
2015-Feb-25 18:37S 21°25' W 164°60'1 0.8 28.0
2015-Feb-25 17:49S 21°25' W 164°59'0 2.3 28.0
2015-Feb-25 17:38S 21°25' W 164°59'0 0.0 28.0
2015-Feb-25 17:35S 21°25' W 164°59'0 0.0 28.0
2015-Feb-25 17:31S 21°25' W 164°59'0 0.3 28.0
2015-Feb-25 16:07S 21°25' W 164°59'0 2.2 28.0
2015-Feb-25 15:58S 21°26' W 164°59'0 1.8 28.1
2015-Feb-25 15:47S 21°25' W 164°59'0 4.0 28.1
2015-Feb-25 15:42S 21°26' W 164°59'0 3.4 28.1
2015-Feb-25 15:34S 21°26' W 164°58'0 0.0 28.1
2015-Feb-25 14:29S 21°26' W 164°58'1 1.3 28.1
2015-Feb-25 14:03S 21°25' W 164°58'0 0.0 28.1
2015-Feb-25 12:39S 21°25' W 164°58'0 0.5 28.1
2015-Feb-25 12:30S 21°25' W 164°58'125.0 28.1
2015-Feb-25 12:27S 21°26' W 164°57'0 0.0 28.1
2015-Feb-25 10:55S 21°26' W 164°57'0 0.0 28.2
2015-Feb-25 09:55S 21°26' W 164°57'0 0.4 28.2
2015-Feb-25 09:07S 21°26' W 164°57'0 0.5 28.2
2015-Feb-25 08:23S 21°26' W 164°57'0 0.4 28.2
2015-Feb-25 07:28S 21°26' W 164°57'1 0.7 28.3
2015-Feb-25 06:04S 21°27' W 164°57'0 0.0 28.3
2015-Feb-25 05:16S 21°27' W 164°57'0 5.8 28.4
2015-Feb-25 05:11S 21°27' W 164°58'0 0.0 28.4
2015-Feb-25 05:03S 21°27' W 164°58'1 0.5 28.4
2015-Feb-25 03:30S 21°26' W 164°58'0 0.7 28.4
2015-Feb-25 03:23S 21°26' W 164°58'118.8 28.5
2015-Feb-25 03:21S 21°26' W 164°59'0 0.8 28.4
2015-Feb-25 03:01S 21°26' W 164°58'0 1.1 28.5
2015-Feb-25 02:46S 21°26' W 164°59'1 0.4 28.5
2015-Feb-25 01:23S 21°26' W 164°58'0 0.0
2015-Feb-25 01:22S 21°26' W 164°58'1 0.8 28.4
2015-Feb-24 23:40S 21°25' W 164°58'1 0.2 28.4
2015-Feb-24 20:37S 21°25' W 164°57'0 0.5 28.1
2015-Feb-24 19:55S 21°24' W 164°57'0 1.2 28.0
2015-Feb-24 19:52S 21°24' W 164°57'1 0.9 28.0
2015-Feb-24 18:57S 21°25' W 164°56'0 0.4 27.9
2015-Feb-24 18:09S 21°24' W 164°56'1 0.3 27.9
2015-Feb-24 16:30S 21°24' W 164°55'1 9.2 27.9
2015-Feb-24 16:26S 21°25' W 164°55'1 2.4 27.9
2015-Feb-24 15:58S 21°24' W 164°56'113.3 27.9
2015-Feb-24 15:53S 21°25' W 164°55'0 2.1 27.9
2015-Feb-24 15:45S 21°25' W 164°55'0 0.0 27.9
2015-Feb-24 14:54S 21°25' W 164°55'0 0.2 27.9
2015-Feb-24 14:14S 21°25' W 164°55'0 0.2 28.0
2015-Feb-24 12:52S 21°25' W 164°54'0 0.0 28.0
2015-Feb-24 12:47S 21°25' W 164°54'0 0.1 28.0
2015-Feb-24 11:06S 21°25' W 164°54'1 0.3 28.0
2015-Feb-24 09:30S 21°25' W 164°54'0 0.3 28.0
2015-Feb-24 08:44S 21°25' W 164°54'0 0.4
2015-Feb-24 07:51S 21°24' W 164°54'1 0.4 28.0
2015-Feb-24 05:47S 21°25' W 164°53'0 0.3 28.1
2015-Feb-24 04:37S 21°25' W 164°53'0 0.6 28.1
2015-Feb-24 04:08S 21°25' W 164°53'0 1.1 28.1
2015-Feb-24 04:05S 21°25' W 164°53'0 1.3 28.1
2015-Feb-24 03:48S 21°25' W 164°53'0 0.7 28.1
2015-Feb-24 03:10S 21°25' W 164°53'0 0.0 28.1
2015-Feb-24 03:01S 21°25' W 164°53'1 0.5 28.1
2015-Feb-24 01:30S 21°25' W 164°52'1 0.7 28.1
2015-Feb-23 23:52S 21°24' W 164°52'2 1.0 28.1
2015-Feb-23 21:54S 21°26' W 164°51'   27.9
Track history (hours):
 
Tides and Currents Weather Stations Pressure Air Temp Water Temp Dewpoint Dewpoint Depression Visibility Wind Speed Wind Dir Waves Ship Positions

Aadnyj

Last reported at 2015-Mar-05 21:46 UTC. Time now 2015-Mar-06 00:06 UTC.
Position S 20°56' W 165°45'.

Length 56 m.

Type: Towing. MMSI: 413600286.

Date/timePositionNaut miles runAvg speedWind from/ knotsBaromVisibWave heightAir tempDewpointWater temp
2015-Mar-05 21:46S 20°56' W 165°45'1 8.9
2015-Mar-05 21:41S 20°56' W 165°45'0 0.2 28.1
2015-Mar-05 20:56S 20°56' W 165°45'0 1.8 28.1
2015-Mar-05 20:50S 20°56' W 165°45'0 0.4 28.1
2015-Mar-05 20:10S 20°56' W 165°45'0 0.7 28.1
2015-Mar-05 20:05S 20°56' W 165°45'1 0.7 28.1
2015-Mar-05 19:11S 20°57' W 165°45'0 0.5 28.2
2015-Mar-05 18:26S 20°57' W 165°44'0 0.2 28.2
2015-Mar-05 16:47S 20°57' W 165°45'1 1.9 28.2
2015-Mar-05 16:08S 20°58' W 165°44'1 5.1 28.2
2015-Mar-05 15:56S 20°57' W 165°44'1 3.9 28.2
2015-Mar-05 15:43S 20°58' W 165°44'0 0.2 28.2
2015-Mar-05 14:30S 20°58' W 165°44'0 0.0 28.2
2015-Mar-05 14:12S 20°58' W 165°44'1 0.5 28.2
2015-Mar-05 12:51S 20°59' W 165°44'0 0.0 28.2
2015-Mar-05 12:47S 20°59' W 165°44'1 0.6 28.2
2015-Mar-05 11:06S 20°59' W 165°44'0 0.3 28.2
2015-Mar-05 09:41S 20°59' W 165°44'0 0.5 28.2
2015-Mar-05 08:57S 20°59' W 165°43'0 0.0 28.2
2015-Mar-05 08:54S 20°59' W 165°43'1 0.8 28.2
2015-Mar-05 08:04S 20°59' W 165°44'1 0.3 28.2
2015-Mar-05 06:04S 20°59' W 165°43'1 0.4 28.2
2015-Mar-05 04:34S 20°60' W 165°43'0 0.0 28.2
2015-Mar-05 04:23S 20°60' W 165°43'1 1.5 28.2
2015-Mar-05 03:24S 20°58' W 165°43'1 3.5 28.2
2015-Mar-05 03:11S 20°59' W 165°43'313.5 28.2
2015-Mar-05 02:58S 20°59' W 165°40'0 0.0 28.2
2015-Mar-05 01:29S 20°59' W 165°40'0 0.0 28.2
2015-Mar-04 23:52S 20°59' W 165°40'1 0.3 28.2
2015-Mar-04 20:30S 20°60' W 165°39'0 0.0 28.1
2015-Mar-04 20:21S 20°60' W 165°39'0 0.0 28.1
2015-Mar-04 19:30S 20°60' W 165°39'1 1.6 28.1
2015-Mar-04 18:55S 21°00' W 165°39'1 0.3 28.1
2015-Mar-04 17:16S 21°00' W 165°38'1 0.6 28.2
2015-Mar-04 16:07S 21°01' W 165°38'0 0.0 28.2
2015-Mar-04 16:00S 21°01' W 165°38'1 1.5 28.2
2015-Mar-04 15:36S 21°01' W 165°38'0 0.2 28.2
2015-Mar-04 14:57S 21°01' W 165°38'0 0.0 28.2
2015-Mar-04 14:26S 21°01' W 165°38'0 0.0 28.2
2015-Mar-04 14:23S 21°01' W 165°38'3 2.2 28.2
2015-Mar-04 13:02S 21°03' W 165°35'0 0.0 28.2
2015-Mar-04 12:57S 21°03' W 165°35'0 0.0 28.2
2015-Mar-04 12:50S 21°03' W 165°35'0 0.0 28.2
2015-Mar-04 11:15S 21°03' W 165°35'0 0.2 28.3
2015-Mar-04 09:16S 21°03' W 165°35'0 0.0 28.3
2015-Mar-04 09:14S 21°03' W 165°35'111.5 28.3
2015-Mar-04 09:10S 21°03' W 165°36'0 0.0
2015-Mar-04 08:25S 21°03' W 165°36'1 0.3 28.3
2015-Mar-04 04:57S 21°04' W 165°36'0 3.7 28.4
2015-Mar-04 04:52S 21°04' W 165°36'0 0.0 28.4
2015-Mar-04 04:46S 21°04' W 165°36'0 0.3 28.4
2015-Mar-04 03:50S 21°04' W 165°36'0 0.3 28.4
2015-Mar-04 03:21S 21°04' W 165°36'1 4.0 28.4
2015-Mar-04 03:13S 21°04' W 165°35'110.8 28.4
2015-Mar-04 03:10S 21°04' W 165°36'1 0.4 28.4
2015-Mar-04 01:46S 21°04' W 165°35'0 1.2 28.5
2015-Mar-04 01:42S 21°04' W 165°35'1 0.3 28.5
2015-Mar-04 00:04S 21°04' W 165°35'2 0.6 28.5
2015-Mar-03 20:46S 21°05' W 165°34'0 3.4 28.3
2015-Mar-03 20:44S 21°05' W 165°34'0 0.1 28.3
2015-Mar-03 19:58S 21°05' W 165°34'0 0.7 28.3
2015-Mar-03 19:53S 21°05' W 165°34'0 0.4 28.3
2015-Mar-03 19:08S 21°05' W 165°34'1 0.8 28.2
2015-Mar-03 17:50S 21°06' W 165°33'0 1.1 28.2
2015-Mar-03 17:44S 21°06' W 165°33'0 0.2 28.2
2015-Mar-03 17:01S 21°06' W 165°33'0 0.4 28.3
2015-Mar-03 16:16S 21°06' W 165°33'0 1.3 28.3
2015-Mar-03 16:10S 21°06' W 165°33'0 0.6 28.3
2015-Mar-03 15:22S 21°06' W 165°32'1 1.3 28.3
2015-Mar-03 14:49S 21°07' W 165°33'1 4.0 28.3
2015-Mar-03 14:30S 21°06' W 165°32'0 0.0 28.3
2015-Mar-03 13:13S 21°06' W 165°32'1 4.2 28.3
2015-Mar-03 13:05S 21°06' W 165°32'224.6 28.3
2015-Mar-03 13:01S 21°08' W 165°31'0 0.1 28.3
2015-Mar-03 11:29S 21°07' W 165°31'1 0.6 28.3
2015-Mar-03 09:38S 21°08' W 165°30'1 4.6 28.3
2015-Mar-03 09:30S 21°08' W 165°30'0 0.0 28.3
2015-Mar-03 08:46S 21°08' W 165°30'0 1.2 28.3
2015-Mar-03 08:43S 21°08' W 165°30'1 0.8 28.3
2015-Mar-03 07:58S 21°08' W 165°30'2 1.7 28.4
2015-Mar-03 07:03S 21°08' W 165°28'1 0.5 28.4
2015-Mar-03 05:22S 21°09' W 165°28'1 2.5 28.4
2015-Mar-03 04:59S 21°09' W 165°27'1 1.3 28.5
2015-Mar-03 04:14S 21°09' W 165°28'0 0.8 28.5
2015-Mar-03 03:46S 21°09' W 165°28'0 1.0 28.5
2015-Mar-03 03:16S 21°09' W 165°28'2 1.4 28.6
2015-Mar-03 01:53S 21°11' W 165°26'1 0.3 28.7
2015-Mar-03 00:15S 21°10' W 165°27'2 0.7 28.7
2015-Mar-02 21:10S 21°13' W 165°26'0 0.4 28.3
2015-Mar-02 20:13S 21°13' W 165°26'1 0.8 28.3
2015-Mar-02 19:28S 21°13' W 165°26'1 0.4 28.3
2015-Mar-02 16:41S 21°14' W 165°25'0 0.0 28.3
2015-Mar-02 16:30S 21°14' W 165°25'0 0.6 28.3
2015-Mar-02 15:45S 21°15' W 165°25'0 0.1 28.3
2015-Mar-02 14:49S 21°15' W 165°25'0 0.0 28.3
2015-Mar-02 14:46S 21°15' W 165°25'0 0.1 28.3
2015-Mar-02 13:16S 21°15' W 165°25'1 6.5 28.4
2015-Mar-02 13:11S 21°16' W 165°25'0 0.0 28.4
2015-Mar-02 11:43S 21°16' W 165°25'0 1.2 28.4
2015-Mar-02 11:40S 21°16' W 165°25'0 0.0 28.4
2015-Mar-02 10:41S 21°16' W 165°25'1 1.1 28.4
2015-Mar-02 09:52S 21°16' W 165°24'0 0.0 28.4
2015-Mar-02 09:07S 21°16' W 165°24'0 1.8 28.5
2015-Mar-02 09:03S 21°16' W 165°24'0 0.4 28.5
2015-Mar-02 08:15S 21°16' W 165°25'1 0.8 28.5
2015-Mar-02 07:24S 21°16' W 165°24'1 0.5 28.6
2015-Mar-02 05:09S 21°16' W 165°23'0 0.2 28.7
2015-Mar-02 04:15S 21°15' W 165°23'1 0.8 28.9
2015-Mar-02 03:30S 21°16' W 165°22'1 2.6 28.9
2015-Mar-02 02:56S 21°16' W 165°21'0 0.0 28.8
2015-Mar-02 02:08S 21°16' W 165°21'1 0.3 28.8
2015-Mar-02 00:27S 21°17' W 165°21'3 0.7 28.9
2015-Mar-01 20:30S 21°19' W 165°19'0 0.5 28.3
2015-Mar-01 19:51S 21°19' W 165°19'0 0.0 28.2
2015-Mar-01 19:48S 21°19' W 165°19'1 0.7 28.2
2015-Mar-01 18:54S 21°20' W 165°18'2 0.9 28.2
2015-Mar-01 17:12S 21°21' W 165°18'0 0.9 28.2
2015-Mar-01 16:41S 21°22' W 165°18'1 1.8 28.2
2015-Mar-01 16:14S 21°22' W 165°17'1 1.0 28.2
2015-Mar-01 15:29S 21°23' W 165°18'0 0.0 28.2
2015-Mar-01 14:58S 21°23' W 165°18'1 1.1 28.2
2015-Mar-01 14:29S 21°23' W 165°18'1 0.6 28.2
2015-Mar-01 13:36S 21°23' W 165°18'0 4.2 28.2
2015-Mar-01 13:29S 21°24' W 165°19'0 0.1 28.2
2015-Mar-01 09:27S 21°24' W 165°18'0 0.4 28.3
2015-Mar-01 08:39S 21°24' W 165°19'0 0.5 28.3
2015-Mar-01 07:46S 21°23' W 165°18'1 0.7 28.4
2015-Mar-01 06:27S 21°24' W 165°18'0 0.0 28.4
2015-Mar-01 05:22S 21°24' W 165°18'0 0.6 28.5
2015-Mar-01 04:46S 21°24' W 165°18'0 0.2 28.6
2015-Mar-01 03:44S 21°24' W 165°18'0 1.3 28.7
2015-Mar-01 03:23S 21°24' W 165°18'0 4.0
2015-Mar-01 03:21S 21°24' W 165°18'1 4.1 28.7
2015-Mar-01 03:07S 21°24' W 165°17'0 0.0 28.7
2015-Mar-01 02:16S 21°24' W 165°17'0 0.1 28.7
2015-Mar-01 00:38S 21°24' W 165°17'1 0.4 28.5
2015-Feb-28 21:51S 21°25' W 165°16'1 8.0 28.4
2015-Feb-28 21:45S 21°24' W 165°16'0 0.2 28.4
2015-Feb-28 21:00S 21°24' W 165°16'0 1.0 28.3
2015-Feb-28 20:52S 21°24' W 165°16'0 0.0 28.3
2015-Feb-28 20:13S 21°24' W 165°16'0 0.0 28.2
2015-Feb-28 20:07S 21°24' W 165°16'1 1.0 28.2
2015-Feb-28 19:14S 21°24' W 165°15'1 0.3 28.2
2015-Feb-28 17:40S 21°25' W 165°14'0 0.4 28.2
2015-Feb-28 16:52S 21°25' W 165°14'0 0.1 28.2
2015-Feb-28 16:01S 21°25' W 165°14'0 0.2 28.3
2015-Feb-28 15:12S 21°25' W 165°14'0 0.0 28.3
2015-Feb-28 15:09S 21°25' W 165°14'0 1.8 28.3
2015-Feb-28 15:00S 21°25' W 165°14'0 0.0 28.3
2015-Feb-28 14:55S 21°25' W 165°14'0 0.4 28.3
2015-Feb-28 13:47S 21°25' W 165°14'1 0.4 28.3
2015-Feb-28 12:06S 21°25' W 165°13'0 0.0 28.4
2015-Feb-28 12:03S 21°25' W 165°13'1 0.2 28.4
2015-Feb-28 08:59S 21°26' W 165°13'0 0.0 28.4
2015-Feb-28 08:57S 21°26' W 165°13'0 0.0 28.4
2015-Feb-28 08:08S 21°26' W 165°13'0 0.8 28.4
2015-Feb-28 08:02S 21°26' W 165°13'1 0.9 28.5
2015-Feb-28 07:15S 21°26' W 165°12'0 0.2 28.5
2015-Feb-28 05:30S 21°26' W 165°11'0 2.1 28.5
2015-Feb-28 05:16S 21°26' W 165°12'0 0.1 28.5
2015-Feb-28 02:11S 21°26' W 165°12'0 0.0 28.6
2015-Feb-28 00:51S 21°26' W 165°12'1 0.1 28.6
2015-Feb-27 20:26S 21°26' W 165°12'1 0.4 28.3
2015-Feb-27 18:45S 21°25' W 165°11'0 0.5 28.2
2015-Feb-27 18:15S 21°26' W 165°11'0 0.3 28.3
2015-Feb-27 16:36S 21°25' W 165°11'1 0.7 28.3
2015-Feb-27 15:23S 21°25' W 165°10'0 0.7 28.3
2015-Feb-27 15:16S 21°25' W 165°10'111.6 28.3
2015-Feb-27 15:11S 21°25' W 165°09'1 0.7 28.3
2015-Feb-27 13:57S 21°25' W 165°10'1 3.0 28.3
2015-Feb-27 13:40S 21°25' W 165°09'1 0.4 28.3
2015-Feb-27 12:16S 21°25' W 165°10'0 4.0 28.3
2015-Feb-27 12:14S 21°25' W 165°10'1 0.5 28.3
2015-Feb-27 09:14S 21°24' W 165°08'0 0.0 28.5
2015-Feb-27 08:28S 21°24' W 165°08'1 0.7 28.5
2015-Feb-27 07:40S 21°24' W 165°08'1 0.6 28.5
2015-Feb-27 05:53S 21°25' W 165°07'0 1.9 28.8
2015-Feb-27 05:45S 21°25' W 165°07'1 0.5 28.8
2015-Feb-27 04:14S 21°25' W 165°06'0 7.9 29.1
2015-Feb-27 04:11S 21°25' W 165°07'0 0.0 29.1
2015-Feb-27 04:00S 21°25' W 165°07'1 0.7 29.1
2015-Feb-27 02:38S 21°25' W 165°06'0 0.1 29.3
2015-Feb-27 01:00S 21°25' W 165°06'2 0.4 29.1
2015-Feb-26 20:54S 21°26' W 165°04'0 0.4 28.2
2015-Feb-26 19:55S 21°26' W 165°05'1 1.2 28.1
2015-Feb-26 19:10S 21°27' W 165°04'0 0.8 28.0
2015-Feb-26 18:45S 21°27' W 165°04'0 0.1 28.0
2015-Feb-26 15:44S 21°27' W 165°04'0 0.0 28.1
2015-Feb-26 15:36S 21°27' W 165°04'0 0.2 28.1
2015-Feb-26 14:09S 21°27' W 165°04'0 1.0 28.1
2015-Feb-26 13:50S 21°27' W 165°03'0 0.1 28.1
2015-Feb-26 12:25S 21°27' W 165°04'0 0.1 28.1
2015-Feb-26 09:39S 21°27' W 165°03'1 0.6 28.1
2015-Feb-26 08:47S 21°27' W 165°03'0 0.0 28.2
2015-Feb-26 08:02S 21°27' W 165°03'0 0.2 28.2
2015-Feb-26 07:04S 21°27' W 165°03'0 0.0 28.2
2015-Feb-26 05:56S 21°27' W 165°03'0 0.4 28.3
2015-Feb-26 04:45S 21°26' W 165°03'0 1.2 28.4
2015-Feb-26 04:42S 21°26' W 165°03'0 0.0 28.4
2015-Feb-26 04:40S 21°26' W 165°03'1 2.4 28.4
2015-Feb-26 04:15S 21°26' W 165°02'1 1.1 28.4
2015-Feb-26 03:03S 21°25' W 165°02'1 5.1 28.4
2015-Feb-26 02:52S 21°26' W 165°02'0 0.0 28.4
2015-Feb-26 02:45S 21°26' W 165°02'1 6.3 28.4
2015-Feb-26 02:36S 21°25' W 165°02'1 0.4 28.4
2015-Feb-26 01:11S 21°25' W 165°02'1 0.6 28.2
2015-Feb-25 23:27S 21°24' W 165°01'0 0.0 28.3
2015-Feb-25 21:59S 21°24' W 165°01'1 0.8 28.2
2015-Feb-25 21:14S 21°25' W 165°00'1 0.8 28.2
2015-Feb-25 20:16S 21°25' W 164°60'0 0.2 28.1
2015-Feb-25 19:27S 21°25' W 164°60'0 0.0 28.0
2015-Feb-25 19:13S 21°25' W 164°60'0 0.6 28.0
2015-Feb-25 18:37S 21°25' W 164°60'1 0.8 28.0
2015-Feb-25 17:49S 21°25' W 164°59'0 2.3 28.0
2015-Feb-25 17:38S 21°25' W 164°59'0 0.0 28.0
2015-Feb-25 17:35S 21°25' W 164°59'0 0.0 28.0
2015-Feb-25 17:31S 21°25' W 164°59'0 0.3 28.0
2015-Feb-25 16:07S 21°25' W 164°59'0 2.2 28.0
2015-Feb-25 15:58S 21°26' W 164°59'0 1.8 28.1
2015-Feb-25 15:47S 21°25' W 164°59'0 4.0 28.1
2015-Feb-25 15:42S 21°26' W 164°59'0 3.4 28.1
2015-Feb-25 15:34S 21°26' W 164°58'0 0.0 28.1
2015-Feb-25 14:29S 21°26' W 164°58'1 1.3 28.1
2015-Feb-25 14:03S 21°25' W 164°58'0 0.0 28.1
2015-Feb-25 12:39S 21°25' W 164°58'0 0.5 28.1
2015-Feb-25 12:30S 21°25' W 164°58'125.0 28.1
2015-Feb-25 12:27S 21°26' W 164°57'0 0.0 28.1
2015-Feb-25 10:55S 21°26' W 164°57'0 0.0 28.2
2015-Feb-25 09:55S 21°26' W 164°57'0 0.4 28.2
2015-Feb-25 09:07S 21°26' W 164°57'0 0.5 28.2
2015-Feb-25 08:23S 21°26' W 164°57'0 0.4 28.2
2015-Feb-25 07:28S 21°26' W 164°57'1 0.7 28.3
2015-Feb-25 06:04S 21°27' W 164°57'0 0.0 28.3
2015-Feb-25 05:16S 21°27' W 164°57'0 5.8 28.4
2015-Feb-25 05:11S 21°27' W 164°58'0 0.0 28.4
2015-Feb-25 05:03S 21°27' W 164°58'1 0.5 28.4
2015-Feb-25 03:30S 21°26' W 164°58'0 0.7 28.4
2015-Feb-25 03:23S 21°26' W 164°58'118.8 28.5
2015-Feb-25 03:21S 21°26' W 164°59'0 0.8 28.4
2015-Feb-25 03:01S 21°26' W 164°58'0 1.1 28.5
2015-Feb-25 02:46S 21°26' W 164°59'1 0.4 28.5
2015-Feb-25 01:23S 21°26' W 164°58'0 0.0
2015-Feb-25 01:22S 21°26' W 164°58'1 0.8 28.4
2015-Feb-24 23:40S 21°25' W 164°58'1 0.2 28.4
2015-Feb-24 20:37S 21°25' W 164°57'0 0.5 28.1
2015-Feb-24 19:55S 21°24' W 164°57'0 1.2 28.0
2015-Feb-24 19:52S 21°24' W 164°57'1 0.9 28.0
2015-Feb-24 18:57S 21°25' W 164°56'0 0.4 27.9
2015-Feb-24 18:09S 21°24' W 164°56'1 0.3 27.9
2015-Feb-24 16:30S 21°24' W 164°55'1 9.2 27.9
2015-Feb-24 16:26S 21°25' W 164°55'1 2.4 27.9
2015-Feb-24 15:58S 21°24' W 164°56'113.3 27.9
2015-Feb-24 15:53S 21°25' W 164°55'0 2.1 27.9
2015-Feb-24 15:45S 21°25' W 164°55'0 0.0 27.9
2015-Feb-24 14:54S 21°25' W 164°55'0 0.2 27.9
2015-Feb-24 14:14S 21°25' W 164°55'0 0.2 28.0
2015-Feb-24 12:52S 21°25' W 164°54'0 0.0 28.0
2015-Feb-24 12:47S 21°25' W 164°54'0 0.1 28.0
2015-Feb-24 11:06S 21°25' W 164°54'1 0.3 28.0
2015-Feb-24 09:30S 21°25' W 164°54'0 0.3 28.0
2015-Feb-24 08:44S 21°25' W 164°54'0 0.4
2015-Feb-24 07:51S 21°24' W 164°54'1 0.4 28.0
2015-Feb-24 05:47S 21°25' W 164°53'0 0.3 28.1
2015-Feb-24 04:37S 21°25' W 164°53'0 0.6 28.1
2015-Feb-24 04:08S 21°25' W 164°53'0 1.1 28.1
2015-Feb-24 04:05S 21°25' W 164°53'0 1.3 28.1
2015-Feb-24 03:48S 21°25' W 164°53'0 0.7 28.1
2015-Feb-24 03:10S 21°25' W 164°53'0 0.0 28.1
2015-Feb-24 03:01S 21°25' W 164°53'1 0.5 28.1
2015-Feb-24 01:30S 21°25' W 164°52'1 0.7 28.1
2015-Feb-23 23:52S 21°24' W 164°52'2 1.0 28.1
2015-Feb-23 21:54S 21°26' W 164°51'   27.9

Dump ship's entire track history